Time;durP1;ratioP1;P1;durP2;ratioP2;P2;SDS_P1;SDS_P2;PMS_P1;PMS_P2;Temp;Humidity;BMP_temperature;BMP_pressure;BME280_temperature;BME280_humidity;BME280_pressure;Samples;Min_cycle;Max_cycle;Signal;HPM_P1;HPM_P2
2022/09/22 00:01:12;;;;;;;5.82;4.70;;;;;;;9.08;100.00;101254.94;4889015;29;20052;-70
2022/09/22 00:03:42;;;;;;;5.72;4.13;;;;;;;9.04;100.00;101253.28;4892527;29;20052;-70
2022/09/22 00:06:15;;;;;;;6.13;4.33;;;;;;;8.90;100.00;101244.84;4891800;29;20467;-69
2022/09/22 00:08:43;;;;;;;6.43;4.25;;;;;;;9.00;100.00;101254.25;4883071;29;20099;-70
2022/09/22 00:11:18;;;;;;;6.03;4.30;;;;;;;8.92;100.00;101228.06;4887358;29;20053;-68
2022/09/22 00:13:51;;;;;;;7.22;4.35;;;;;;;9.09;100.00;101251.38;4891588;29;20151;-69
2022/09/22 00:16:24;;;;;;;7.07;4.22;;;;;;;9.12;100.00;101257.44;4892368;29;20082;-70
2022/09/22 00:18:50;;;;;;;7.38;4.20;;;;;;;9.13;100.00;101258.28;4890663;29;20116;-70
2022/09/22 00:21:20;;;;;;;6.13;4.40;;;;;;;9.09;100.00;101260.19;4885342;29;20049;-70
2022/09/22 00:23:48;;;;;;;6.43;4.65;;;;;;;9.01;100.00;101259.50;4893214;29;20499;-70
2022/09/22 00:26:18;;;;;;;6.00;4.40;;;;;;;8.97;100.00;101251.72;4885834;29;20083;-70
2022/09/22 00:28:47;;;;;;;6.00;3.97;;;;;;;8.93;100.00;101260.63;4893265;29;20558;-69
2022/09/22 00:31:16;;;;;;;9.13;4.38;;;;;;;8.87;100.00;101260.78;4890954;29;20144;-73
2022/09/22 00:33:45;;;;;;;5.93;4.40;;;;;;;8.82;100.00;101258.25;4894260;29;20072;-70
2022/09/22 00:36:13;;;;;;;7.13;4.80;;;;;;;8.84;100.00;101255.56;4882600;29;20064;-70
2022/09/22 00:38:41;;;;;;;5.30;4.20;;;;;;;8.85;100.00;101252.00;4891891;29;20049;-69
2022/09/22 00:41:17;;;;;;;6.72;4.60;;;;;;;8.64;100.00;101229.69;4893764;29;20171;-71
2022/09/22 00:43:47;;;;;;;7.05;4.18;;;;;;;8.83;100.00;101259.09;4888249;29;20053;-71
2022/09/22 00:46:17;;;;;;;4.95;4.28;;;;;;;8.83;100.00;101245.91;4890002;29;20068;-70
2022/09/22 00:48:50;;;;;;;5.60;4.40;;;;;;;8.74;100.00;101249.66;4891119;29;20041;-70
2022/09/22 00:51:21;;;;;;;7.57;4.25;;;;;;;8.73;100.00;101250.56;4892061;29;20068;-70
2022/09/22 00:53:48;;;;;;;6.63;4.35;;;;;;;8.67;100.00;101248.94;4889231;29;20135;-71
2022/09/22 00:56:23;;;;;;;6.95;4.25;;;;;;;8.55;100.00;101245.75;4893727;29;20066;-71
2022/09/22 00:59:01;;;;;;;6.32;4.60;;;;;;;8.44;100.00;101251.31;4892914;29;20044;-68
2022/09/22 01:01:28;;;;;;;10.02;4.90;;;;;;;8.38;100.00;101251.44;4891605;29;20056;-71
2022/09/22 01:03:55;;;;;;;6.68;4.75;;;;;;;8.31;100.00;101242.78;4885304;29;20212;-70
2022/09/22 01:06:26;;;;;;;6.90;4.60;;;;;;;8.29;100.00;101246.38;4890010;29;20056;-72
2022/09/22 01:08:55;;;;;;;5.95;4.80;;;;;;;8.25;100.00;101249.97;4890938;29;20122;-67
2022/09/22 01:11:24;;;;;;;7.97;4.82;;;;;;;8.25;100.00;101255.25;4887413;29;20057;-72
2022/09/22 01:14:32;;;;;;;5.80;5.18;;;;;;;8.21;100.00;101237.75;4888759;29;20522;-70
2022/09/22 01:17:20;;;;;;;7.75;4.72;;;;;;;8.08;100.00;101226.63;4889340;29;20525;-68
2022/09/22 01:20:11;;;;;;;7.05;4.60;;;;;;;8.15;100.00;101240.56;4887868;29;20909;-72
2022/09/22 01:22:58;;;;;;;7.35;5.05;;;;;;;8.10;100.00;101240.66;4893752;29;20456;-71
2022/09/22 01:25:56;;;;;;;7.32;4.63;;;;;;;8.08;100.00;101235.41;4888088;29;20044;-72
2022/09/22 01:28:56;;;;;;;7.05;4.93;;;;;;;8.04;100.00;101232.88;4893048;29;20064;-69
2022/09/22 01:31:37;;;;;;;10.02;5.30;;;;;;;8.00;100.00;101229.47;4892649;29;20126;-69
2022/09/22 01:34:20;;;;;;;9.82;5.07;;;;;;;7.93;100.00;101227.84;4884115;29;20060;-75
2022/09/22 01:37:22;;;;;;;6.85;4.90;;;;;;;7.96;100.00;101232.19;4874568;29;20078;-73
2022/09/22 01:40:00;;;;;;;6.75;5.00;;;;;;;7.92;100.00;101239.31;4869474;29;20057;-70
2022/09/22 01:42:36;;;;;;;7.72;4.85;;;;;;;7.88;100.00;101229.72;4887630;29;20041;-71
2022/09/22 01:45:16;;;;;;;9.75;5.13;;;;;;;7.85;100.00;101237.72;4881499;29;20521;-70
2022/09/22 01:47:51;;;;;;;7.03;4.80;;;;;;;7.82;100.00;101232.50;4887280;29;20469;-71
2022/09/22 01:50:23;;;;;;;5.50;4.82;;;;;;;7.80;100.00;101231.66;4888781;29;20070;-72
2022/09/22 01:52:52;;;;;;;7.82;5.40;;;;;;;7.77;100.00;101228.22;4892444;29;20052;-70
2022/09/22 01:55:24;;;;;;;8.07;4.95;;;;;;;7.75;100.00;101231.75;4889908;29;20080;-72
2022/09/22 01:57:57;;;;;;;8.85;5.38;;;;;;;7.71;100.00;101226.63;4890638;29;20052;-70
2022/09/22 02:00:24;;;;;;;13.40;4.93;;;;;;;7.68;100.00;101224.03;4888401;29;20147;-71
2022/09/22 02:03:14;;;;;;;6.88;4.95;;;;;;;7.54;100.00;101205.91;4890022;29;20064;-71
2022/09/22 02:05:48;;;;;;;6.68;4.85;;;;;;;7.67;100.00;101224.94;4890002;29;20116;-74
2022/09/22 02:08:26;;;;;;;6.72;4.75;;;;;;;7.74;100.00;101221.25;4885189;29;20533;-71
2022/09/22 02:10:57;;;;;;;10.93;5.38;;;;;;;7.77;100.00;101223.81;4889964;29;20067;-72
2022/09/22 02:13:24;;;;;;;7.63;4.63;;;;;;;7.64;100.00;101217.97;4886363;29;20207;-72
2022/09/22 02:16:00;;;;;;;7.63;5.15;;;;;;;7.63;100.00;101228.53;4895522;29;20056;-72
2022/09/22 02:18:50;;;;;;;8.23;5.10;;;;;;;7.55;100.00;101226.09;4891562;29;20063;-70
2022/09/22 02:21:18;;;;;;;10.68;5.32;;;;;;;7.35;100.00;101197.50;4887417;29;20047;-69
2022/09/22 02:23:47;;;;;;;6.88;4.78;;;;;;;7.33;100.00;101191.41;4891218;29;20053;-70
2022/09/22 02:26:22;;;;;;;6.50;5.05;;;;;;;7.48;100.00;101218.31;4890686;29;20083;-71
2022/09/22 02:28:59;;;;;;;11.80;5.50;;;;;;;7.51;100.00;101228.81;4888383;29;20061;-72
2022/09/22 02:31:29;;;;;;;7.68;5.05;;;;;;;7.50;100.00;101219.16;4889790;29;20083;-71
2022/09/22 02:33:56;;;;;;;7.05;4.85;;;;;;;7.46;100.00;101215.72;4888855;29;20053;-71
2022/09/22 02:36:42;;;;;;;6.85;5.68;;;;;;;7.47;100.00;101219.22;4890007;29;20151;-70
2022/09/22 02:39:14;;;;;;;8.35;5.10;;;;;;;7.46;100.00;101218.34;4889730;29;20045;-71
2022/09/22 02:41:43;;;;;;;7.82;4.90;;;;;;;7.45;100.00;101213.09;4889471;29;20061;-72
2022/09/22 02:44:48;;;;;;;7.53;5.07;;;;;;;7.43;100.00;101209.63;4882251;29;20074;-67
2022/09/22 02:47:26;;;;;;;9.57;4.85;;;;;;;7.37;100.00;101206.25;4829213;29;20133;-72
2022/09/22 02:49:54;;;;;;;9.23;5.60;;;;;;;7.39;100.00;101204.47;4878945;29;20385;-70
2022/09/22 02:52:23;;;;;;;6.35;4.78;;;;;;;7.44;100.00;101201.69;4887830;29;20059;-68
2022/09/22 02:54:52;;;;;;;7.82;4.90;;;;;;;7.47;100.00;101200.78;4889258;29;20109;-75
2022/09/22 02:57:19;;;;;;;5.80;4.50;;;;;;;7.44;100.00;101199.06;4888601;29;20765;-71
2022/09/22 02:59:46;;;;;;;6.55;4.68;;;;;;;7.49;100.00;101188.44;4891150;29;20060;-70
2022/09/22 03:02:12;;;;;;;7.50;4.20;;;;;;;7.56;100.00;101187.38;4884571;29;20181;-72
2022/09/22 03:04:39;;;;;;;6.30;4.35;;;;;;;7.58;100.00;101183.81;4884156;29;20140;-70
2022/09/22 03:07:06;;;;;;;5.90;4.18;;;;;;;7.59;100.00;101189.97;4887724;29;20068;-72
2022/09/22 03:09:32;;;;;;;4.53;4.10;;;;;;;7.56;100.00;101196.16;4891973;29;20053;-74
2022/09/22 03:11:59;;;;;;;9.98;5.03;;;;;;;7.47;100.00;101190.22;4890188;29;20112;-74
2022/09/22 03:14:26;;;;;;;6.50;4.63;;;;;;;7.46;100.00;101191.13;4892243;29;20143;-70
2022/09/22 03:16:53;;;;;;;8.60;3.95;;;;;;;7.47;100.00;101190.22;4888709;29;20084;-71
2022/09/22 03:19:19;;;;;;;5.50;4.53;;;;;;;7.45;100.00;101189.41;4889030;29;20065;-71
2022/09/22 03:21:46;;;;;;;7.35;4.47;;;;;;;7.45;100.00;101187.63;4891135;29;20055;-72
2022/09/22 03:24:12;;;;;;;6.38;4.43;;;;;;;7.45;100.00;101184.13;4890595;29;20143;-71
2022/09/22 03:26:39;;;;;;;6.82;4.45;;;;;;;7.39;100.00;101177.25;4886923;29;20104;-73
2022/09/22 03:29:05;;;;;;;7.10;4.20;;;;;;;7.40;100.00;101177.19;4894865;29;20052;-73
2022/09/22 03:31:32;;;;;;;5.97;4.30;;;;;;;7.42;100.00;101182.41;4894386;29;20059;-72
2022/09/22 03:33:59;;;;;;;6.03;4.25;;;;;;;7.38;100.00;101173.72;4889982;29;20053;-74
2022/09/22 03:36:25;;;;;;;7.22;4.35;;;;;;;7.27;100.00;101159.91;4896878;29;20076;-72
2022/09/22 03:38:52;;;;;;;6.68;4.75;;;;;;;7.34;100.00;101173.81;4894005;29;20047;-72
2022/09/22 03:41:19;;;;;;;8.43;5.10;;;;;;;7.31;100.00;101173.88;4895643;29;20056;-72
2022/09/22 03:43:45;;;;;;;6.55;4.30;;;;;;;7.22;100.00;101174.09;4890186;29;20055;-71
2022/09/22 03:46:13;;;;;;;6.93;4.45;;;;;;;7.20;100.00;101176.75;4889837;29;20048;-72
2022/09/22 03:48:40;;;;;;;4.93;4.15;;;;;;;7.17;100.00;101182.06;4893667;29;20607;-70
2022/09/22 03:51:11;;;;;;;6.22;4.78;;;;;;;7.14;100.00;101176.88;4888525;29;20064;-72
2022/09/22 03:53:37;;;;;;;7.50;4.63;;;;;;;7.09;100.00;101178.72;4895190;29;20518;-73
2022/09/22 03:56:13;;;;;;;6.70;4.75;;;;;;;7.07;100.00;101172.63;4895385;29;20049;-71
2022/09/22 03:58:40;;;;;;;6.38;4.13;;;;;;;7.05;100.00;101187.59;4889127;29;20147;-71
2022/09/22 04:01:09;;;;;;;8.98;4.70;;;;;;;7.04;100.00;101180.59;4887499;29;20076;-73
2022/09/22 04:03:37;;;;;;;6.45;4.38;;;;;;;7.07;100.00;101185.81;4890388;29;20052;-70
2022/09/22 04:06:05;;;;;;;5.95;3.72;;;;;;;7.07;100.00;101175.28;4890818;29;20053;-74
2022/09/22 04:08:32;;;;;;;5.38;3.70;;;;;;;7.09;100.00;101176.06;4893219;29;20060;-72
2022/09/22 04:10:59;;;;;;;5.10;3.95;;;;;;;7.11;100.00;101181.31;4895330;29;20066;-73
2022/09/22 04:13:26;;;;;;;7.63;4.35;;;;;;;6.96;100.00;101153.53;4895397;29;20072;-71
2022/09/22 04:15:53;;;;;;;7.78;4.53;;;;;;;7.14;100.00;101176.88;4894147;29;20067;-73
2022/09/22 04:18:21;;;;;;;5.60;4.05;;;;;;;7.18;100.00;101173.28;4892662;29;20522;-72
2022/09/22 04:20:47;;;;;;;5.72;4.28;;;;;;;7.21;100.00;101177.63;4892860;29;20547;-71
2022/09/22 04:23:16;;;;;;;6.38;4.28;;;;;;;7.20;100.00;101175.88;4894005;29;20055;-72
2022/09/22 04:25:43;;;;;;;6.47;3.97;;;;;;;7.19;100.00;101172.38;4894605;29;20052;-71
2022/09/22 04:28:09;;;;;;;8.98;4.03;;;;;;;7.19;100.00;101177.66;4893247;29;20061;-72
2022/09/22 04:30:36;;;;;;;5.40;4.00;;;;;;;7.17;100.00;101171.53;4891134;29;20074;-70
2022/09/22 04:33:03;;;;;;;6.20;4.55;;;;;;;7.19;100.00;101175.00;4882375;29;20083;-71
2022/09/22 04:35:30;;;;;;;6.43;4.75;;;;;;;7.17;100.00;101166.28;4894166;29;20063;-76
2022/09/22 04:37:57;;;;;;;5.68;4.22;;;;;;;7.18;100.00;101168.00;4889125;29;20135;-72
2022/09/22 04:40:23;;;;;;;8.18;4.68;;;;;;;7.15;100.00;101168.06;4890038;29;20049;-74
2022/09/22 04:42:50;;;;;;;5.30;4.50;;;;;;;7.16;100.00;101171.56;4881438;29;20125;-71
2022/09/22 04:45:17;;;;;;;14.27;5.55;;;;;;;7.14;100.00;101176.00;4891095;29;20052;-73
2022/09/22 04:47:48;;;;;;;10.02;4.80;;;;;;;7.12;100.00;101169.88;4888043;29;20052;-74
2022/09/22 04:50:16;;;;;;;6.30;4.32;;;;;;;7.04;100.00;101152.50;4891530;29;20479;-73
2022/09/22 04:52:45;;;;;;;5.80;4.50;;;;;;;7.08;100.00;101165.59;4885520;29;20068;-75
2022/09/22 04:55:12;;;;;;;7.28;4.88;;;;;;;7.11;100.00;101171.66;4889819;29;20076;-71
2022/09/22 04:57:38;;;;;;;7.68;4.38;;;;;;;6.98;100.00;101149.97;4892726;29;20083;-73
2022/09/22 05:00:06;;;;;;;6.97;4.82;;;;;;;7.10;100.00;101169.03;4889437;29;21270;-75
2022/09/22 05:02:33;;;;;;;8.73;4.78;;;;;;;7.12;100.00;101172.53;4891499;29;20057;-72
2022/09/22 05:05:01;;;;;;;6.53;4.68;;;;;;;6.99;100.00;101151.72;4887711;29;20419;-73
2022/09/22 05:07:28;;;;;;;5.88;4.20;;;;;;;6.96;100.00;101143.88;4890280;29;20566;-68
2022/09/22 05:09:54;;;;;;;8.52;4.53;;;;;;;6.97;100.00;101152.63;4891966;29;20478;-71
2022/09/22 05:12:21;;;;;;;6.40;4.35;;;;;;;7.11;100.00;101176.91;4892026;29;20096;-73
2022/09/22 05:14:47;;;;;;;7.30;4.70;;;;;;;7.08;100.00;101182.28;4894338;29;20064;-74
2022/09/22 05:17:14;;;;;;;7.47;4.65;;;;;;;6.97;100.00;101160.53;4890202;29;20040;-77
2022/09/22 05:19:40;;;;;;;6.32;4.70;;;;;;;7.04;100.00;101188.50;4888214;29;20058;-71
2022/09/22 05:22:08;;;;;;;8.18;5.07;;;;;;;6.89;100.00;101173.00;4889666;29;20049;-70
2022/09/22 05:24:34;;;;;;;9.35;5.20;;;;;;;6.93;100.00;101187.81;4888272;29;20060;-71
2022/09/22 05:27:01;;;;;;;8.30;5.15;;;;;;;6.89;100.00;101191.44;4891529;29;20096;-72
2022/09/22 05:29:28;;;;;;;8.73;5.28;;;;;;;6.87;100.00;101193.22;4890011;29;20048;-72
2022/09/22 05:31:55;;;;;;;6.20;4.72;;;;;;;6.84;100.00;101188.00;4893778;29;20052;-73
2022/09/22 05:34:22;;;;;;;8.75;4.68;;;;;;;6.85;100.00;101195.00;4883818;29;20052;-70
2022/09/22 05:36:48;;;;;;;7.55;5.15;;;;;;;6.85;100.00;101200.28;4891003;29;20414;-70
2022/09/22 05:39:15;;;;;;;7.35;4.90;;;;;;;6.84;100.00;101195.91;4889970;29;20143;-69
2022/09/22 05:41:41;;;;;;;8.65;5.13;;;;;;;6.79;100.00;101192.47;4887552;29;20056;-69
2022/09/22 05:44:08;;;;;;;9.55;5.38;;;;;;;6.81;100.00;101201.22;4887060;29;20055;-68
2022/09/22 05:46:34;;;;;;;9.75;4.95;;;;;;;6.80;100.00;101197.72;4885348;29;20049;-71
2022/09/22 05:49:01;;;;;;;7.35;5.18;;;;;;;6.87;100.00;101209.00;4886428;29;20044;-69
2022/09/22 05:51:27;;;;;;;12.13;6.03;;;;;;;6.93;100.00;101207.13;4889772;29;20052;-72
2022/09/22 05:53:54;;;;;;;6.93;5.00;;;;;;;6.92;100.00;101197.50;4885194;29;20194;-69
2022/09/22 05:56:21;;;;;;;8.35;5.13;;;;;;;6.98;100.00;101197.38;4885349;29;20053;-68
2022/09/22 05:58:47;;;;;;;9.95;5.70;;;;;;;7.07;100.00;101209.50;4885591;29;20084;-67
2022/09/22 06:01:14;;;;;;;6.65;5.18;;;;;;;7.02;100.00;101188.53;4890456;29;20127;-71
2022/09/22 06:03:41;;;;;;;10.80;5.53;;;;;;;7.18;100.00;101204.88;4889184;29;20095;-69
2022/09/22 06:06:08;;;;;;;6.10;4.57;;;;;;;7.17;100.00;101197.00;4890568;29;20071;-71
2022/09/22 06:08:34;;;;;;;11.13;5.53;;;;;;;7.24;100.00;101196.00;4893015;29;20064;-70
2022/09/22 06:11:01;;;;;;;8.00;5.40;;;;;;;7.27;100.00;101198.53;4885326;29;20091;-72
2022/09/22 06:13:27;;;;;;;6.28;5.07;;;;;;;7.33;100.00;101203.69;4886618;29;20619;-74
2022/09/22 06:15:54;;;;;;;8.40;4.97;;;;;;;7.35;100.00;101202.78;4892825;29;20049;-73
2022/09/22 06:18:21;;;;;;;9.57;5.18;;;;;;;7.37;100.00;101184.31;4882790;29;20665;-74
2022/09/22 06:20:50;;;;;;;7.23;5.37;;;;;;;7.51;100.00;101198.06;4887917;29;20057;-73
2022/09/22 06:23:17;;;;;;;6.75;4.72;;;;;;;7.59;100.00;101205.78;4890227;29;20140;-72
2022/09/22 06:25:43;;;;;;;10.35;5.22;;;;;;;7.66;100.00;101208.25;4884888;29;20140;-73
2022/09/22 06:28:13;;;;;;;11.32;5.35;;;;;;;7.74;100.00;101190.47;4891527;29;20053;-73
2022/09/22 06:30:40;;;;;;;9.32;5.45;;;;;;;7.84;100.00;101201.72;4888703;29;20052;-67
2022/09/22 06:33:08;;;;;;;10.70;5.38;;;;;;;7.94;100.00;101197.94;4885037;29;20060;-69
2022/09/22 06:35:37;;;;;;;5.75;4.97;;;;;;;8.09;100.00;101200.22;4888401;29;20082;-70
2022/09/22 06:38:05;;;;;;;7.65;4.75;;;;;;;8.23;100.00;101193.72;4885167;29;20063;-71
2022/09/22 06:40:35;;;;;;;9.20;5.30;;;;;;;8.32;100.00;101198.84;4884829;29;20040;-70
2022/09/22 06:43:11;;;;;;;6.55;4.85;;;;;;;8.45;100.00;101194.97;4884350;29;20515;-68
2022/09/22 06:45:39;;;;;;;8.32;5.25;;;;;;;8.64;100.00;101201.53;4886137;29;20140;-71
2022/09/22 06:48:06;;;;;;;9.93;4.65;;;;;;;8.69;99.77;101156.50;4888514;29;20049;-70
2022/09/22 06:50:37;;;;;;;6.10;4.97;;;;;;;9.13;98.47;101189.59;4887734;29;20194;-71
2022/09/22 06:53:06;;;;;;;7.50;4.47;;;;;;;9.48;94.68;101200.00;4890085;29;20132;-71
2022/09/22 06:55:33;;;;;;;8.20;4.28;;;;;;;9.79;91.49;101189.38;4890162;29;20506;-74
2022/09/22 06:58:01;;;;;;;7.88;4.53;;;;;;;10.02;88.05;101196.59;4885490;29;20415;-73
2022/09/22 07:00:31;;;;;;;7.72;4.28;;;;;;;10.14;85.70;101204.13;4896864;29;20055;-71
2022/09/22 07:03:14;;;;;;;9.50;4.20;;;;;;;10.21;86.43;101174.88;4889390;29;20079;-68
2022/09/22 07:05:42;;;;;;;8.82;4.25;;;;;;;10.54;83.77;101201.09;4891123;29;20059;-69
2022/09/22 07:08:08;;;;;;;6.85;3.90;;;;;;;10.72;82.37;101202.22;4886517;29;20052;-70
2022/09/22 07:10:36;;;;;;;4.97;3.50;;;;;;;10.81;80.63;101196.59;4887834;29;20402;-69
2022/09/22 07:13:09;;;;;;;6.13;3.65;;;;;;;11.03;81.70;101206.44;4887667;29;20483;-70
2022/09/22 07:15:36;;;;;;;8.75;4.43;;;;;;;11.28;79.70;101199.31;4889842;29;20061;-70
2022/09/22 07:18:03;;;;;;;6.82;3.80;;;;;;;11.35;78.38;101182.25;4887673;29;20070;-69
2022/09/22 07:20:31;;;;;;;5.50;3.42;;;;;;;11.58;77.12;101195.50;4883888;29;20061;-71
2022/09/22 07:22:59;;;;;;;4.80;3.60;;;;;;;11.87;75.35;101193.53;4889603;29;20045;-71
2022/09/22 07:25:27;;;;;;;3.95;3.10;;;;;;;11.88;73.53;101192.63;4871129;29;20053;-67
2022/09/22 07:27:57;;;;;;;4.18;3.60;;;;;;;11.94;74.08;101197.69;4889782;29;21770;-67
2022/09/22 07:30:25;;;;;;;6.25;3.45;;;;;;;12.09;73.74;101196.22;4891712;29;20063;-68
2022/09/22 07:32:51;;;;;;;4.22;3.25;;;;;;;12.26;73.43;101157.44;4890471;29;20456;-70
2022/09/22 07:35:18;;;;;;;5.03;3.17;;;;;;;12.58;71.39;101179.97;4889726;29;20057;-72
2022/09/22 07:37:45;;;;;;;8.15;3.80;;;;;;;12.60;71.56;101161.28;4887519;29;20072;-69
2022/09/22 07:40:13;;;;;;;8.23;3.63;;;;;;;12.75;71.09;101181.03;4886088;29;20063;-71
2022/09/22 07:42:40;;;;;;;7.60;4.30;;;;;;;12.79;72.61;101175.50;4889529;29;20064;-74
2022/09/22 07:45:11;;;;;;;5.82;3.78;;;;;;;12.86;71.21;101163.69;4892053;29;20064;-68
2022/09/22 07:50:23;;;;;;;5.43;3.38;;;;;;;12.90;69.48;101185.69;4889538;29;20135;-69
2022/09/22 07:52:51;;;;;;;6.07;3.70;;;;;;;12.55;70.13;101168.59;4886885;29;20052;-70
2022/09/22 07:55:23;;;;;;;6.15;3.42;;;;;;;12.59;71.90;101188.81;4891189;29;20048;-70
2022/09/22 07:57:58;;;;;;;6.05;3.53;;;;;;;12.81;71.37;101186.94;4890091;29;20143;-70
2022/09/22 08:00:32;;;;;;;4.82;3.63;;;;;;;13.03;70.24;101192.19;4890415;29;20127;-70
2022/09/22 08:03:00;;;;;;;5.25;3.55;;;;;;;13.08;69.27;101184.84;4888775;29;20560;-72
2022/09/22 08:05:28;;;;;;;4.18;3.25;;;;;;;13.11;69.74;101183.84;4886272;29;20056;-72
2022/09/22 08:07:59;;;;;;;7.05;3.85;;;;;;;13.04;70.56;101183.28;4893050;29;20102;-67
2022/09/22 08:10:25;;;;;;;5.53;3.78;;;;;;;12.93;70.80;101174.91;4888849;29;20132;-69
2022/09/22 08:12:56;;;;;;;8.82;4.68;;;;;;;13.00;71.01;101184.34;4888017;29;20052;-70
2022/09/22 08:15:23;;;;;;;6.35;4.20;;;;;;;13.05;70.05;101184.13;4883321;29;20145;-69
2022/09/22 08:18:01;;;;;;;5.43;3.45;;;;;;;13.20;71.64;101178.16;4893412;29;20481;-68
2022/09/22 08:20:28;;;;;;;5.18;3.30;;;;;;;13.43;69.66;101183.28;4890156;29;20246;-70
2022/09/22 08:23:01;;;;;;;6.68;4.00;;;;;;;13.33;67.82;101152.72;4888677;29;20435;-69
2022/09/22 08:25:29;;;;;;;5.30;3.22;;;;;;;13.38;68.63;101177.31;4881341;29;20057;-70
2022/09/22 08:27:55;;;;;;;4.00;3.53;;;;;;;13.53;68.38;101181.94;4890295;29;20076;-67
2022/09/22 08:30:22;;;;;;;4.88;3.72;;;;;;;13.36;69.44;101179.19;4886817;29;20048;-69
2022/09/22 08:32:49;;;;;;;5.53;3.53;;;;;;;13.22;69.94;101187.78;4884285;29;20067;-68
2022/09/22 08:35:15;;;;;;;5.50;3.75;;;;;;;13.26;71.49;101191.16;4894259;29;20064;-69
2022/09/22 08:37:43;;;;;;;5.13;3.47;;;;;;;13.22;71.11;101184.28;4893328;29;20049;-70
2022/09/22 08:40:19;;;;;;;5.18;3.40;;;;;;;13.14;70.34;101187.25;4887441;29;20054;-68
2022/09/22 08:42:46;;;;;;;4.55;3.25;;;;;;;12.71;70.93;101137.78;4887996;29;20567;-68
2022/09/22 08:45:26;;;;;;;5.65;3.70;;;;;;;12.90;71.98;101183.91;4889432;29;20059;-71
2022/09/22 08:53:42;;;;;;;8.30;3.58;;;;;;;12.90;73.06;101186.56;4890816;29;20063;-70
2022/09/22 08:56:29;;;;;;;7.82;3.38;;;;;;;12.98;72.28;101188.84;4890763;29;20197;-67
2022/09/22 08:59:09;;;;;;;6.00;3.28;;;;;;;12.99;73.92;101171.97;4892378;29;20571;-70
2022/09/22 09:01:42;;;;;;;4.50;3.17;;;;;;;13.02;71.54;101161.22;4884858;29;20060;-67
2022/09/22 09:04:39;;;;;;;4.95;3.15;;;;;;;13.20;71.15;101181.69;4880674;29;20084;-70
2022/09/22 09:07:42;;;;;;;8.00;3.85;;;;;;;13.26;71.22;101178.72;4866544;29;20057;-68
2022/09/22 09:10:51;;;;;;;6.82;3.30;;;;;;;13.36;71.39;101181.00;4841796;29;20073;-69
2022/09/22 09:13:20;;;;;;;4.05;3.00;;;;;;;13.51;69.75;101180.28;4886340;29;20132;-69
2022/09/22 09:15:56;;;;;;;4.93;2.97;;;;;;;13.55;69.64;101184.50;4885680;29;20388;-71
2022/09/22 09:18:33;;;;;;;5.15;2.80;;;;;;;13.61;69.40;101174.44;4880755;29;20543;-70
2022/09/22 09:21:03;;;;;;;5.38;3.33;;;;;;;13.73;69.18;101173.00;4883798;29;20083;-71
2022/09/22 09:23:37;;;;;;;6.83;2.87;;;;;;;13.84;69.98;101164.50;4883440;29;20056;-69
2022/09/22 09:26:26;;;;;;;4.90;2.90;;;;;;;14.05;69.06;101163.44;4877921;29;20048;-70
2022/09/22 09:28:58;;;;;;;5.90;2.85;;;;;;;14.19;67.27;101162.75;4892403;29;20080;-69
2022/09/22 09:31:37;;;;;;;4.75;3.10;;;;;;;14.22;67.42;101143.97;4881970;29;20116;-70
2022/09/22 09:34:07;;;;;;;7.25;3.30;;;;;;;14.37;65.71;101154.72;4886998;29;20060;-73
2022/09/22 09:36:41;;;;;;;6.95;2.88;;;;;;;14.49;64.99;101166.59;4887756;29;20495;-72
2022/09/22 09:39:19;;;;;;;3.65;2.65;;;;;;;14.60;65.22;101166.06;4877457;29;20481;-70
2022/09/22 09:41:47;;;;;;;6.07;3.00;;;;;;;14.72;64.36;101160.09;4883101;29;20057;-69
2022/09/22 09:44:29;;;;;;;9.25;2.90;;;;;;;14.87;64.82;101155.75;4879270;29;20045;-70
2022/09/22 09:47:08;;;;;;;4.07;2.03;;;;;;;15.08;64.51;101159.97;4883362;29;20088;-70
2022/09/22 09:49:34;;;;;;;4.25;2.65;;;;;;;15.11;60.23;101133.09;4889588;29;20048;-69
2022/09/22 09:52:07;;;;;;;4.78;2.25;;;;;;;15.24;58.65;101135.97;4878769;29;20057;-67
2022/09/22 09:54:36;;;;;;;2.78;2.00;;;;;;;15.49;57.42;101147.03;4884980;29;20044;-70
2022/09/22 09:57:05;;;;;;;5.13;2.10;;;;;;;15.63;56.20;101152.47;4886590;29;20049;-68
2022/09/22 10:02:30;;;;;;;5.55;1.67;;;;;;;15.68;55.57;101131.72;4879930;29;20063;-68
2022/09/22 10:05:03;;;;;;;5.20;1.77;;;;;;;15.87;53.88;101152.94;4884674;29;20065;-69
2022/09/22 10:07:40;;;;;;;7.15;2.20;;;;;;;15.96;53.61;101149.72;4883427;29;20083;-70
2022/09/22 10:10:28;;;;;;;6.53;2.08;;;;;;;16.01;53.57;101144.97;4877299;29;20049;-73
2022/09/22 10:13:04;;;;;;;3.85;2.00;;;;;;;16.05;54.30;101143.88;4875025;29;20101;-70
2022/09/22 10:15:35;;;;;;;5.25;2.00;;;;;;;16.05;53.88;101124.28;4882382;29;20469;-71
2022/09/22 10:18:24;;;;;;;3.17;1.40;;;;;;;16.26;53.53;101133.72;4877343;29;20140;-71
2022/09/22 10:21:18;;;;;;;6.50;1.77;;;;;;;16.25;52.20;101121.28;4882051;29;20525;-70
2022/09/22 10:23:47;;;;;;;4.25;1.40;;;;;;;16.38;50.74;101134.78;4882744;29;20151;-72
2022/09/22 10:26:19;;;;;;;6.93;1.50;;;;;;;16.49;50.13;101130.56;4881298;29;20076;-71
2022/09/22 10:29:05;;;;;;;3.78;1.60;;;;;;;16.55;51.48;101123.94;4889132;29;20052;-70
2022/09/22 10:31:31;;;;;;;1.50;1.00;;;;;;;16.61;49.61;101122.72;4879797;29;20721;-70
2022/09/22 10:33:59;;;;;;;4.65;1.30;;;;;;;16.69;49.42;101109.78;4888782;29;20128;-69
2022/09/22 10:36:28;;;;;;;2.92;1.30;;;;;;;16.79;48.36;101113.63;4887801;29;20052;-69
2022/09/22 10:38:54;;;;;;;4.72;1.80;;;;;;;16.82;49.11;101113.44;4881229;29;20049;-69
2022/09/22 10:41:33;;;;;;;4.53;1.80;;;;;;;16.90;49.35;101112.97;4886396;29;20075;-68
2022/09/22 10:44:14;;;;;;;3.47;2.05;;;;;;;17.05;48.65;101110.19;4881152;29;20443;-69
2022/09/22 10:47:18;;;;;;;4.22;1.88;;;;;;;17.11;47.50;101080.38;4886541;29;20049;-68
2022/09/22 10:50:14;;;;;;;5.13;1.63;;;;;;;17.32;47.66;101101.38;4883779;29;20049;-67
2022/09/22 10:53:04;;;;;;;5.75;1.60;;;;;;;17.39;47.16;101103.56;4887147;29;20143;-69
2022/09/22 10:56:17;;;;;;;3.80;1.40;;;;;;;17.46;46.78;101106.72;4862436;29;20140;-66
2022/09/22 10:59:04;;;;;;;4.78;1.17;;;;;;;17.52;46.94;101095.59;4867408;29;20116;-70
2022/09/22 11:01:49;;;;;;;4.00;1.30;;;;;;;17.56;46.01;101102.47;4880724;29;20133;-72
2022/09/22 11:04:43;;;;;;;6.85;1.23;;;;;;;17.52;46.86;101099.13;4891618;29;20060;-72
2022/09/22 11:13:56;;;;;;;2.72;1.13;;;;;;;17.44;46.76;101088.06;4887817;29;20136;-71
2022/09/22 11:16:22;;;;;;;2.38;1.25;;;;;;;17.32;46.74;101074.59;4889436;29;20127;-70
2022/09/22 11:19:12;;;;;;;3.35;1.10;;;;;;;17.47;46.53;101082.50;4883610;29;20052;-69
2022/09/22 11:21:53;;;;;;;3.42;1.50;;;;;;;17.49;46.67;101077.03;4885804;29;20063;-68
2022/09/22 11:24:26;;;;;;;7.40;1.20;;;;;;;17.49;45.07;101085.94;4882942;29;20051;-69
2022/09/22 11:27:00;;;;;;;5.53;1.30;;;;;;;17.58;45.02;101067.56;4888119;29;20084;-68
2022/09/22 11:29:52;;;;;;;2.03;1.00;;;;;;;17.69;44.72;101059.72;4889655;29;20071;-70
2022/09/22 11:32:28;;;;;;;2.05;1.13;;;;;;;17.73;44.57;101035.31;4881783;29;20083;-70
2022/09/22 11:35:20;;;;;;;3.95;1.20;;;;;;;17.75;43.43;101016.47;4892750;29;20064;-68
2022/09/22 11:38:08;;;;;;;3.08;1.23;;;;;;;17.90;44.82;101060.13;4883724;29;20140;-71
2022/09/22 11:40:48;;;;;;;3.20;1.15;;;;;;;17.94;44.49;101048.25;4881359;29;20060;-69
2022/09/22 11:43:54;;;;;;;5.75;1.55;;;;;;;18.07;44.49;101047.31;4885846;29;20088;-68
2022/09/22 11:46:42;;;;;;;3.60;1.40;;;;;;;18.08;44.36;101048.16;4892895;29;20086;-67
2022/09/22 11:49:30;;;;;;;3.92;1.50;;;;;;;18.08;43.88;101040.13;4882167;29;20056;-69
2022/09/22 11:52:13;;;;;;;2.97;1.17;;;;;;;18.15;43.93;101038.72;4886834;29;20049;-69
2022/09/22 11:55:10;;;;;;;4.43;1.30;;;;;;;18.35;42.82;101032.88;4887046;29;20148;-68
2022/09/22 11:57:43;;;;;;;6.28;1.30;;;;;;;18.53;41.58;101030.72;4893684;29;20067;-72
2022/09/22 12:00:19;;;;;;;2.53;1.13;;;;;;;18.61;41.58;101028.38;4892791;29;20041;-69
2022/09/22 12:03:05;;;;;;;7.53;1.63;;;;;;;18.74;41.81;101021.19;4885968;29;20279;-68
2022/09/22 12:05:40;;;;;;;3.10;1.20;;;;;;;18.79;40.30;101020.88;4884281;29;20057;-72
2022/09/22 12:08:06;;;;;;;6.43;1.27;;;;;;;18.63;40.04;101020.22;4887037;29;20087;-69